createdAt,value
2016-04-22T00:00:26.913Z,6.79
2016-04-22T00:01:26.885Z,6.73
2016-04-22T00:02:26.856Z,6.68
2016-04-22T00:03:26.687Z,6.72
2016-04-22T00:04:26.808Z,6.73
2016-04-22T00:05:26.780Z,6.69
2016-04-22T00:06:26.751Z,6.73
2016-04-22T00:07:26.723Z,6.72
2016-04-22T00:08:26.694Z,6.68
2016-04-22T00:09:26.681Z,6.69
2016-04-22T00:10:26.637Z,6.66
2016-04-22T00:11:26.467Z,6.59
2016-04-22T00:12:26.580Z,6.63
2016-04-22T00:13:26.567Z,6.58
2016-04-22T00:14:26.539Z,6.65
2016-04-22T00:15:26.510Z,6.59
2016-04-22T00:16:26.481Z,6.58
2016-04-22T00:17:26.452Z,6.59
2016-04-22T00:18:26.425Z,6.48
2016-04-22T00:19:26.411Z,6.44
2016-04-22T00:20:26.383Z,6.47
2016-04-22T00:21:26.338Z,6.51
2016-04-22T00:22:26.341Z,6.54
2016-04-22T00:23:26.282Z,6.51
2016-04-22T00:24:26.269Z,6.44
2016-04-22T00:25:26.240Z,6.54
2016-04-22T00:26:26.212Z,6.53
2016-04-22T00:27:26.183Z,6.51
2016-04-22T00:28:26.170Z,6.41
2016-04-22T00:29:26.126Z,6.44
2016-04-22T00:30:26.113Z,6.46
2016-04-22T00:31:26.069Z,6.43
2016-04-22T00:32:26.040Z,6.41
2016-04-22T00:33:26.012Z,6.32
2016-04-22T00:34:26.014Z,6.28
2016-04-22T00:35:25.954Z,6.35
2016-04-22T00:36:25.943Z,6.32
2016-04-22T00:37:25.930Z,6.32
2016-04-22T00:38:25.870Z,6.25
2016-04-22T00:39:25.857Z,6.28
2016-04-22T00:40:25.813Z,6.28
2016-04-22T00:41:25.800Z,6.3
2016-04-22T00:42:25.771Z,6.3
2016-04-22T00:43:25.742Z,6.19
2016-04-22T00:44:25.715Z,6.16
2016-04-22T00:45:25.701Z,6.22
2016-04-22T00:46:25.657Z,6.19
2016-04-22T00:47:25.643Z,6.13
2016-04-22T00:48:25.615Z,6.14
2016-04-22T00:49:25.586Z,6.07
2016-04-22T00:50:25.543Z,6.06
2016-04-22T00:51:25.529Z,5.96
2016-04-22T00:52:25.517Z,6
2016-04-22T00:53:25.457Z,5.92
2016-04-22T00:54:25.429Z,6
2016-04-22T00:55:25.415Z,5.93
2016-04-22T00:56:25.386Z,5.92
2016-04-22T00:57:25.358Z,5.92
2016-04-22T00:58:25.330Z,5.89
2016-04-22T00:59:25.301Z,5.89
2016-04-22T01:00:25.272Z,5.78
2016-04-22T01:01:25.244Z,5.81
2016-04-22T01:02:25.215Z,5.81
2016-04-22T01:03:25.186Z,5.85
2016-04-22T01:04:25.158Z,5.78
2016-04-22T01:05:25.130Z,5.83
2016-04-22T01:06:25.101Z,5.83
2016-04-22T01:07:25.088Z,5.81
2016-04-22T01:08:25.044Z,5.71
2016-04-22T01:09:25.031Z,5.75
2016-04-22T01:10:25.002Z,5.64
2016-04-22T01:11:24.974Z,5.73
2016-04-22T01:12:24.946Z,5.68
2016-04-22T01:13:24.901Z,5.7
2016-04-22T01:14:24.888Z,5.73
2016-04-22T01:15:24.704Z,5.67
2016-04-22T01:16:24.675Z,5.63
2016-04-22T01:17:24.803Z,5.66
2016-04-22T01:18:24.774Z,5.6
2016-04-22T01:19:24.745Z,5.59
2016-04-22T01:20:24.717Z,5.59
2016-04-22T01:21:24.689Z,5.52
2016-04-22T01:22:24.660Z,5.53
2016-04-22T01:23:24.631Z,5.5
2016-04-22T01:24:24.603Z,5.53
2016-04-22T01:25:24.575Z,5.5
2016-04-22T01:26:24.561Z,5.45
2016-04-22T01:27:24.517Z,5.5
2016-04-22T01:28:24.504Z,5.43
2016-04-22T01:29:24.475Z,5.41
2016-04-22T01:30:24.447Z,5.45
2016-04-22T01:31:24.419Z,5.57
2016-04-22T01:32:24.374Z,5.4
2016-04-22T01:33:24.346Z,5.48
2016-04-22T01:34:24.333Z,5.48
2016-04-22T01:35:24.305Z,5.32
2016-04-22T01:36:24.275Z,5.35
2016-04-22T01:37:24.247Z,5.3
2016-04-22T01:38:24.219Z,5.35
2016-04-22T01:39:24.205Z,5.27
2016-04-22T01:40:24.161Z,5.27
2016-04-22T01:41:24.133Z,5.27
2016-04-22T01:42:24.105Z,5.22
2016-04-22T01:43:24.076Z,5.22
2016-04-22T01:44:24.047Z,5.25
2016-04-22T01:45:24.018Z,5.2
2016-04-22T01:46:23.990Z,5.27
2016-04-22T01:47:23.962Z,5.31
2016-04-22T01:48:23.949Z,5.27
2016-04-22T01:49:23.904Z,5.16
2016-04-22T01:50:23.876Z,5.28
2016-04-22T01:51:23.848Z,5.14
2016-04-22T01:52:23.834Z,5.2
2016-04-22T01:53:23.790Z,5.25
2016-04-22T01:54:23.762Z,5.27
2016-04-22T01:55:23.749Z,5.14
2016-04-22T01:56:23.720Z,5.19
2016-04-22T01:57:23.676Z,5.19
2016-04-22T01:58:23.647Z,5.19
2016-04-22T01:59:23.634Z,5.16
2016-04-22T02:00:23.606Z,5.17
2016-04-22T02:01:23.578Z,5.19
2016-04-22T02:02:23.549Z,5.14
2016-04-22T02:03:23.505Z,5.12
2016-04-22T02:04:23.492Z,5.17
2016-04-22T02:05:23.478Z,5.17
2016-04-22T02:06:23.435Z,5.13
2016-04-22T02:07:23.406Z,5.14
2016-04-22T02:08:23.378Z,5.23
2016-04-22T02:09:23.333Z,5.2
2016-04-22T02:10:23.305Z,5.2
2016-04-22T02:11:23.292Z,5.19
2016-04-22T02:12:23.263Z,5.12
2016-04-22T02:13:23.219Z,5.17
2016-04-22T02:14:23.191Z,5.19
2016-04-22T02:15:23.177Z,5.16
2016-04-22T02:16:23.133Z,5.19
2016-04-22T02:17:23.105Z,5.16
2016-04-22T02:18:23.092Z,5.17
2016-04-22T02:19:23.063Z,5.14
2016-04-22T02:20:23.035Z,5.09
2016-04-22T02:21:22.991Z,5.02
2016-04-22T02:22:22.978Z,5.14
2016-04-22T02:23:22.949Z,5.1
2016-04-22T02:24:22.920Z,5.13
2016-04-22T02:25:22.907Z,5.12
2016-04-22T02:26:22.864Z,5.14
2016-04-22T02:27:22.835Z,5.07
2016-04-22T02:28:22.790Z,5.09
2016-04-22T02:29:22.793Z,5.16
2016-04-22T02:30:22.734Z,5.16
2016-04-22T02:31:22.705Z,5.07
2016-04-22T02:32:22.692Z,5.05
2016-04-22T02:33:22.647Z,4.96
2016-04-22T02:34:22.635Z,5.05
2016-04-22T02:35:22.606Z,5.04
2016-04-22T02:36:22.578Z,5.05
2016-04-22T02:37:22.533Z,5.07
2016-04-22T02:38:22.505Z,5.04
2016-04-22T02:39:22.477Z,5.02
2016-04-22T02:40:22.447Z,5.04
2016-04-22T02:41:22.435Z,5.01
2016-04-22T02:42:22.391Z,5.01
2016-04-22T02:43:22.378Z,4.98
2016-04-22T02:44:22.349Z,4.94
2016-04-22T02:45:22.146Z,5.01
2016-04-22T02:46:22.292Z,4.95
2016-04-22T02:47:22.245Z,4.91
2016-04-22T02:48:22.216Z,4.94
2016-04-22T02:49:22.188Z,4.84
2016-04-22T02:50:22.175Z,4.95
2016-04-22T02:51:22.162Z,4.92
2016-04-22T02:52:22.118Z,4.91
2016-04-22T02:53:22.090Z,4.89
2016-04-22T02:54:22.061Z,4.88
2016-04-22T02:55:22.032Z,4.88
2016-04-22T02:56:22.003Z,4.88
2016-04-22T02:57:21.960Z,4.84
2016-04-22T02:58:21.932Z,4.83
2016-04-22T02:59:21.917Z,4.84
2016-04-22T03:00:21.906Z,4.77
2016-04-22T03:01:21.861Z,4.77
2016-04-22T03:02:21.833Z,4.73
2016-04-22T03:03:21.789Z,4.69
2016-04-22T03:04:21.775Z,4.7
2016-04-22T03:05:21.747Z,4.7
2016-04-22T03:06:21.702Z,4.65
2016-04-22T03:07:21.674Z,4.69
2016-04-22T03:08:21.645Z,4.62
2016-04-22T03:09:21.616Z,4.72
2016-04-22T03:10:21.588Z,4.7
2016-04-22T03:11:21.560Z,4.67
2016-04-22T03:12:21.547Z,4.72
2016-04-22T03:13:21.519Z,4.7
2016-04-22T03:14:21.474Z,4.7
2016-04-22T03:15:21.446Z,4.61
2016-04-22T03:16:21.417Z,4.61
2016-04-22T03:17:21.388Z,4.65
2016-04-22T03:18:21.360Z,4.59
2016-04-22T03:19:21.332Z,4.67
2016-04-22T03:20:21.318Z,4.64
2016-04-22T03:21:21.274Z,4.7
2016-04-22T03:22:21.277Z,4.59
2016-04-22T03:23:21.217Z,4.64
2016-04-22T03:24:21.188Z,4.67
2016-04-22T03:25:21.160Z,4.72
2016-04-22T03:26:21.132Z,4.61
2016-04-22T03:27:21.104Z,4.73
2016-04-22T03:28:21.074Z,4.65
2016-04-22T03:29:21.046Z,4.62
2016-04-22T03:30:21.017Z,4.65
2016-04-22T03:31:20.989Z,4.7
2016-04-22T03:32:20.960Z,4.67
2016-04-22T03:33:20.931Z,4.62
2016-04-22T03:34:20.903Z,4.64
2016-04-22T03:35:20.874Z,4.67
2016-04-22T03:36:20.830Z,4.75
2016-04-22T03:37:20.817Z,4.7
2016-04-22T03:38:20.788Z,4.76
2016-04-22T03:39:20.745Z,4.7
2016-04-22T03:40:20.716Z,4.72
2016-04-22T03:41:20.703Z,4.67
2016-04-22T03:42:20.675Z,4.72
2016-04-22T03:43:20.661Z,4.75
2016-04-22T03:44:20.633Z,4.72
2016-04-22T03:45:20.574Z,4.72
2016-04-22T03:46:20.560Z,4.7
2016-04-22T03:47:20.516Z,4.83
2016-04-22T03:48:20.519Z,4.73
2016-04-22T03:49:20.459Z,4.7
2016-04-22T03:50:20.446Z,4.69
2016-04-22T03:51:20.401Z,4.7
2016-04-22T03:52:20.388Z,4.7
2016-04-22T03:53:20.048Z,4.69
2016-04-22T03:54:20.332Z,4.64
2016-04-22T03:55:20.304Z,4.62
2016-04-22T03:56:20.275Z,4.65
2016-04-22T03:57:20.090Z,4.64
2016-04-22T03:58:20.343Z,4.59
2016-04-22T03:59:20.189Z,4.7
2016-04-22T04:00:20.145Z,4.69
2016-04-22T04:01:20.117Z,4.67
2016-04-22T04:02:20.103Z,4.69
2016-04-22T04:03:20.059Z,4.72
2016-04-22T04:04:20.045Z,4.73
2016-04-22T04:05:20.017Z,4.59
2016-04-22T04:06:19.973Z,4.62
2016-04-22T04:07:19.960Z,4.73
2016-04-22T04:08:19.917Z,4.69
2016-04-22T04:09:19.903Z,4.69
2016-04-22T04:10:19.859Z,4.73
2016-04-22T04:11:19.831Z,4.69
2016-04-22T04:12:19.817Z,4.64
2016-04-22T04:13:19.508Z,4.72
2016-04-22T04:14:19.760Z,4.64
2016-04-22T04:15:19.732Z,4.73
2016-04-22T04:16:19.703Z,4.65
2016-04-22T04:17:19.674Z,4.69
2016-04-22T04:18:19.646Z,4.67
2016-04-22T04:19:19.602Z,4.72
2016-04-22T04:20:19.573Z,4.75
2016-04-22T04:21:19.560Z,4.76
2016-04-22T04:22:19.407Z,4.73
2016-04-22T04:23:19.518Z,4.72
2016-04-22T04:24:19.527Z,4.75
2016-04-22T04:25:19.539Z,4.8
2016-04-22T04:26:19.549Z,4.8
2016-04-22T04:27:19.560Z,4.79
2016-04-22T04:28:19.591Z,4.8
2016-04-22T04:29:19.545Z,4.92
2016-04-22T04:30:19.516Z,4.91
2016-04-22T04:31:19.517Z,4.96
2016-04-22T04:32:19.502Z,5.02
2016-04-22T04:33:19.484Z,5.01
2016-04-22T04:34:19.461Z,5.05
2016-04-22T04:35:19.438Z,5.1
2016-04-22T04:36:19.413Z,5.14
2016-04-22T04:37:19.391Z,5.2
2016-04-22T04:38:19.365Z,5.14
2016-04-22T04:39:19.339Z,5.34
2016-04-22T04:40:19.312Z,5.41
2016-04-22T04:41:19.285Z,5.52
2016-04-22T04:42:19.259Z,5.6
2016-04-22T04:43:19.247Z,5.7
2016-04-22T04:44:19.203Z,5.91
2016-04-22T04:45:19.175Z,6.01
2016-04-22T04:46:19.147Z,5.88
2016-04-22T04:47:19.119Z,5.85
2016-04-22T04:48:19.106Z,5.89
2016-04-22T04:49:19.079Z,5.82
2016-04-22T04:50:19.051Z,5.88
2016-04-22T04:51:19.007Z,5.88
2016-04-22T04:52:18.994Z,5.88
2016-04-22T04:53:18.950Z,5.93
2016-04-22T04:54:18.922Z,5.98
2016-04-22T04:55:18.893Z,6.03
2016-04-22T04:56:18.880Z,6.04
2016-04-22T04:57:18.851Z,6.03
2016-04-22T04:58:18.823Z,6.03
2016-04-22T04:59:18.794Z,6.11
2016-04-22T05:00:18.781Z,6.13
2016-04-22T05:01:18.737Z,6.19
2016-04-22T05:02:18.724Z,6.28
2016-04-22T05:03:18.711Z,6.26
2016-04-22T05:04:18.667Z,6.35
2016-04-22T05:05:18.467Z,6.25
2016-04-22T05:06:18.610Z,6.36
2016-04-22T05:07:18.598Z,6.44
2016-04-22T05:08:18.553Z,6.54
2016-04-22T05:09:18.509Z,6.54
2016-04-22T05:10:18.527Z,6.54
2016-04-22T05:11:18.452Z,6.61
2016-04-22T05:12:18.424Z,6.65
2016-04-22T05:13:18.410Z,6.71
2016-04-22T05:14:18.382Z,6.76
2016-04-22T05:15:18.354Z,6.8
2016-04-22T05:16:18.326Z,6.76
2016-04-22T05:17:18.296Z,6.86
2016-04-22T05:18:18.268Z,6.89
2016-04-22T05:19:18.240Z,6.91
2016-04-22T05:20:18.212Z,7.01
2016-04-22T05:21:18.198Z,7.01
2016-04-22T05:22:18.185Z,6.99
2016-04-22T05:23:18.157Z,7.17
2016-04-22T05:24:18.112Z,7.12
2016-04-22T05:25:18.084Z,7.16
2016-04-22T05:26:18.055Z,7.27
2016-04-22T05:27:18.027Z,7.35
2016-04-22T05:28:17.998Z,7.35
2016-04-22T05:29:17.986Z,7.5
2016-04-22T05:30:17.956Z,7.45
2016-04-22T05:31:17.944Z,7.55
2016-04-22T05:32:17.900Z,7.62
2016-04-22T05:33:17.871Z,7.6
2016-04-22T05:34:17.858Z,7.67
2016-04-22T05:35:17.830Z,7.67
2016-04-22T05:36:17.801Z,7.75
2016-04-22T05:37:17.757Z,7.81
2016-04-22T05:38:17.728Z,7.84
2016-04-22T05:39:17.716Z,7.92
2016-04-22T05:40:17.688Z,7.94
2016-04-22T05:41:17.657Z,7.97
2016-04-22T05:42:17.630Z,8.02
2016-04-22T05:43:17.601Z,7.97
2016-04-22T05:44:17.573Z,8.1
2016-04-22T05:45:17.544Z,8.11
2016-04-22T05:46:17.531Z,8.02
2016-04-22T05:47:17.502Z,8
2016-04-22T05:48:17.474Z,8.14
2016-04-22T05:49:17.461Z,8.14
2016-04-22T05:50:17.432Z,8.14
2016-04-22T05:51:17.403Z,8.14
2016-04-22T05:52:17.375Z,8.21
2016-04-22T05:53:17.347Z,8.21
2016-04-22T05:54:17.333Z,8.21
2016-04-22T05:55:17.289Z,8.29
2016-04-22T05:56:17.276Z,8.29
2016-04-22T05:57:17.264Z,8.36
2016-04-22T05:58:17.219Z,8.45
2016-04-22T05:59:17.192Z,8.42
2016-04-22T06:00:17.178Z,8.45
2016-04-22T06:01:17.165Z,8.42
2016-04-22T06:02:17.121Z,8.5
2016-04-22T06:03:17.077Z,8.48
2016-04-22T06:04:17.064Z,8.48
2016-04-22T06:05:17.036Z,8.47
2016-04-22T06:06:17.007Z,8.47
2016-04-22T06:07:16.978Z,8.5
2016-04-22T06:08:16.966Z,8.5
2016-04-22T06:09:16.937Z,8.48
2016-04-22T06:10:16.907Z,8.55
2016-04-22T06:11:16.910Z,8.58
2016-04-22T06:12:16.866Z,8.54
2016-04-22T06:13:16.822Z,8.57
2016-04-22T06:14:16.793Z,8.51
2016-04-22T06:15:16.782Z,8.6
2016-04-22T06:16:16.751Z,8.58
2016-04-22T06:17:16.723Z,8.71
2016-04-22T06:18:16.710Z,8.62
2016-04-22T06:19:16.698Z,8.45
2016-04-22T06:20:16.653Z,8.62
2016-04-22T06:21:16.625Z,8.63
2016-04-22T06:22:16.596Z,8.6
2016-04-22T06:23:16.583Z,8.6
2016-04-22T06:24:16.539Z,8.58
2016-04-22T06:25:16.526Z,8.57
2016-04-22T06:26:16.514Z,8.66
2016-04-22T06:27:16.470Z,8.66
2016-04-22T06:28:16.441Z,8.68
2016-04-22T06:29:16.412Z,8.72
2016-04-22T06:30:16.399Z,8.81
2016-04-22T06:31:16.387Z,8.88
2016-04-22T06:32:16.342Z,8.9
2016-04-22T06:33:16.314Z,8.99
2016-04-22T06:34:16.286Z,8.94
2016-04-22T06:35:16.272Z,9.05
2016-04-22T06:36:16.259Z,9.1
2016-04-22T06:37:16.216Z,9.21
2016-04-22T06:38:16.186Z,9.18
2016-04-22T06:39:16.158Z,9.16
2016-04-22T06:40:16.144Z,9.24
2016-04-22T06:41:16.132Z,9.24
2016-04-22T06:42:16.088Z,9.18
2016-04-22T06:43:16.059Z,9.13
2016-04-22T06:44:16.046Z,9.3
2016-04-22T06:45:16.018Z,9.31
2016-04-22T06:46:16.005Z,9.34
2016-04-22T06:47:15.960Z,9.4
2016-04-22T06:48:15.948Z,9.46
2016-04-22T06:49:15.919Z,9.5
2016-04-22T06:50:15.891Z,9.49
2016-04-22T06:51:15.862Z,9.57
2016-04-22T06:52:15.834Z,9.56
2016-04-22T06:53:15.820Z,9.45
2016-04-22T06:54:15.793Z,9.43
2016-04-22T06:55:15.763Z,9.57
2016-04-22T06:56:15.734Z,9.56
2016-04-22T06:57:15.706Z,9.56
2016-04-22T06:58:15.678Z,9.68
2016-04-22T06:59:15.665Z,9.73
2016-04-22T07:00:15.637Z,9.66
2016-04-22T07:01:15.608Z,9.82
2016-04-22T07:02:15.578Z,9.73
2016-04-22T07:03:15.566Z,9.79
2016-04-22T07:04:15.538Z,9.78
2016-04-22T07:05:15.541Z,9.7
2016-04-22T07:06:15.496Z,9.78
2016-04-22T07:07:15.467Z,9.66
2016-04-22T07:08:15.455Z,9.67
2016-04-22T07:09:15.426Z,9.82
2016-04-22T07:10:15.382Z,9.71
2016-04-22T07:11:15.369Z,9.67
2016-04-22T07:12:15.341Z,9.67
2016-04-22T07:13:15.328Z,9.75
2016-04-22T07:14:15.299Z,9.76
2016-04-22T07:15:17.302Z,9.91
2016-04-22T07:16:15.241Z,10.04
2016-04-22T07:17:15.229Z,10.12
2016-04-22T07:18:15.201Z,10.22
2016-04-22T07:19:15.187Z,10.26
2016-04-22T07:20:15.377Z,10.51
2016-04-22T07:21:15.162Z,10.53
2016-04-22T07:22:15.086Z,10.98
2016-04-22T07:23:15.073Z,11.2
2016-04-22T07:24:15.045Z,11.17
2016-04-22T07:25:15.234Z,11.2
2016-04-22T07:26:15.003Z,11.28
2016-04-22T07:27:14.975Z,11.43
2016-04-22T07:28:14.945Z,11.46
2016-04-22T07:29:14.933Z,11.52
2016-04-22T07:30:19.623Z,11.56
2016-04-22T07:31:14.876Z,11.47
2016-04-22T07:32:14.848Z,11.36
2016-04-22T07:33:14.834Z,11.32
2016-04-22T07:34:14.821Z,11.14
2016-04-22T07:35:16.684Z,11.11
2016-04-22T07:36:14.764Z,11.07
2016-04-22T07:37:14.752Z,11.01
2016-04-22T07:38:14.723Z,11.61
2016-04-22T07:39:14.694Z,12.95
2016-04-22T07:40:14.666Z,13.81
2016-04-22T07:41:14.669Z,14.43
2016-04-22T07:42:14.655Z,14.9
2016-04-22T07:43:18.283Z,14.68
2016-04-22T07:44:18.192Z,15.17
2016-04-22T07:45:18.898Z,15.39
2016-04-22T07:46:15.776Z,15.78
2016-04-22T07:47:14.529Z,16.2
2016-04-22T07:48:18.031Z,16.26
2016-04-22T07:49:18.159Z,16.27
2016-04-22T07:50:20.380Z,16.78
2016-04-22T07:51:18.414Z,17.22
2016-04-22T07:52:18.542Z,17.36
2016-04-22T07:53:18.748Z,17.78
2016-04-22T07:54:18.468Z,18.18
2016-04-22T07:55:19.612Z,18.29
2016-04-22T07:56:17.912Z,17.78
2016-04-22T07:57:18.556Z,17.11
2016-04-22T07:58:18.355Z,17.18
2016-04-22T07:59:18.093Z,16.55
2016-04-22T08:00:19.860Z,16.06
2016-04-22T08:01:14.254Z,15.72
2016-04-22T08:02:18.256Z,15.89
2016-04-22T08:03:18.133Z,15.97
2016-04-22T08:04:18.168Z,15.76
2016-04-22T08:05:18.953Z,15.54
2016-04-22T08:06:14.172Z,15.42
2016-04-22T08:07:14.145Z,15.41
2016-04-22T08:08:14.131Z,15.35
2016-04-22T08:09:14.119Z,14.86
2016-04-22T08:10:15.684Z,14.86
2016-04-22T08:11:14.077Z,14.65
2016-04-22T08:12:14.064Z,14.5
2016-04-22T08:13:14.036Z,14.38
2016-04-22T08:14:14.085Z,14.29
2016-04-22T08:15:14.025Z,14.39
2016-04-22T08:16:13.982Z,14.56
2016-04-22T08:17:15.327Z,14.78
2016-04-22T08:18:13.955Z,14.86
2016-04-22T08:19:13.927Z,14.84
2016-04-22T08:20:13.914Z,14.75
2016-04-22T08:21:13.901Z,14.74
2016-04-22T08:22:13.873Z,14.65
2016-04-22T08:23:13.876Z,14.54
2016-04-22T08:24:13.831Z,14.43
2016-04-22T08:25:13.818Z,14.39
2016-04-22T08:26:13.805Z,14.65
2016-04-22T08:27:13.776Z,14.87
2016-04-22T08:28:13.748Z,14.88
2016-04-22T08:29:13.751Z,15.19
2016-04-22T08:30:13.722Z,15.17
2016-04-22T08:31:13.709Z,14.67
2016-04-22T08:32:13.681Z,14.28
2016-04-22T08:33:13.667Z,14.24
2016-04-22T08:34:13.655Z,14.67
2016-04-22T08:35:13.626Z,15.15
2016-04-22T08:36:13.613Z,15.88
2016-04-22T08:37:13.601Z,16.01
2016-04-22T08:38:13.572Z,15.94
2016-04-22T08:39:13.621Z,15.72
2016-04-22T08:40:13.530Z,15.74
2016-04-22T08:41:13.502Z,15.48
2016-04-22T08:42:13.505Z,15.41
2016-04-22T08:43:13.476Z,15.26
2016-04-22T08:44:13.463Z,15.01
2016-04-22T08:45:13.435Z,14.9
2016-04-22T08:46:13.406Z,14.84
2016-04-22T08:47:13.393Z,14.84
2016-04-22T08:48:13.380Z,14.62
2016-04-22T08:49:13.352Z,14.54
2016-04-22T08:50:13.979Z,14.53
2016-04-22T08:51:13.326Z,14.43
2016-04-22T08:52:13.296Z,14.29
2016-04-22T08:53:13.285Z,14.28
2016-04-22T08:54:13.271Z,14.12
2016-04-22T08:55:14.040Z,14.13
2016-04-22T08:56:13.215Z,13.79
2016-04-22T08:57:13.201Z,13.91
2016-04-22T08:58:13.172Z,13.84
2016-04-22T08:59:13.159Z,13.79
2016-04-22T09:00:15.491Z,13.89
2016-04-22T09:01:13.134Z,13.8
2016-04-22T09:02:13.090Z,13.8
2016-04-22T09:03:13.092Z,13.76
2016-04-22T09:04:13.064Z,13.8
2016-04-22T09:05:13.098Z,13.69
2016-04-22T09:06:13.022Z,13.77
2016-04-22T09:07:12.994Z,13.71
2016-04-22T09:08:12.965Z,13.65
2016-04-22T09:09:12.218Z,13.7
2016-04-22T09:10:13.470Z,13.73
2016-04-22T09:11:12.911Z,13.91
2016-04-22T09:12:12.944Z,13.94
2016-04-22T09:13:12.869Z,14.02
2016-04-22T09:14:12.855Z,14.14
2016-04-22T09:15:13.108Z,14.06
2016-04-22T09:16:12.800Z,14.12
2016-04-22T09:17:12.802Z,13.99
2016-04-22T09:18:16.211Z,13.99
2016-04-22T09:19:12.744Z,14.2
2016-04-22T09:20:12.716Z,14.04
2016-04-22T09:21:12.703Z,14.06
2016-04-22T09:22:12.690Z,13.92
2016-04-22T09:23:12.887Z,14.06
2016-04-22T09:24:12.640Z,14.1
2016-04-22T09:25:12.627Z,14.09
2016-04-22T09:26:12.614Z,13.99
2016-04-22T09:27:12.570Z,14.01
2016-04-22T09:28:12.556Z,13.96
2016-04-22T09:29:12.545Z,13.96
2016-04-22T09:30:12.609Z,14.14
2016-04-22T09:31:12.518Z,14.02
2016-04-22T09:32:12.475Z,14.01
2016-04-22T09:33:12.524Z,13.95
2016-04-22T09:34:12.432Z,13.96
2016-04-22T09:35:12.420Z,13.8
2016-04-22T09:36:12.392Z,13.83
2016-04-22T09:37:12.378Z,13.8
2016-04-22T09:38:12.351Z,13.95
2016-04-22T09:39:12.337Z,14.04
2016-04-22T09:40:12.747Z,14.01
2016-04-22T09:41:12.280Z,14.02
2016-04-22T09:42:12.267Z,13.95
2016-04-22T09:43:12.239Z,13.88
2016-04-22T09:44:12.225Z,13.79
2016-04-22T09:45:12.213Z,13.81
2016-04-22T09:46:12.185Z,13.96
2016-04-22T09:47:12.172Z,13.99
2016-04-22T09:48:12.144Z,14.09
2016-04-22T09:49:12.114Z,14.17
2016-04-22T09:50:12.102Z,14.12
2016-04-22T09:51:12.088Z,14.04
2016-04-22T09:52:12.060Z,14.09
2016-04-22T09:53:12.031Z,14.21
2016-04-22T09:54:12.018Z,14.21
2016-04-22T09:55:12.005Z,14.35
2016-04-22T09:56:11.977Z,14.43
2016-04-22T09:57:11.949Z,14.52
2016-04-22T09:58:11.779Z,14.5
2016-04-22T09:59:11.923Z,14.62
2016-04-22T10:00:11.893Z,14.53
2016-04-22T10:01:11.881Z,14.47
2016-04-22T10:02:11.837Z,14.46
2016-04-22T10:03:11.855Z,14.5
2016-04-22T10:04:11.812Z,14.57
2016-04-22T10:05:11.781Z,14.67
2016-04-22T10:06:11.770Z,14.74
2016-04-22T10:07:11.741Z,14.8
2016-04-22T10:13:37.790Z,14.88
2016-04-22T10:14:37.762Z,14.91
2016-04-22T10:15:37.733Z,15.12
2016-04-22T10:16:37.721Z,15.13
2016-04-22T10:17:37.707Z,15.19
2016-04-22T10:18:37.710Z,15.26
2016-04-22T10:19:37.510Z,15.38
2016-04-22T10:20:37.638Z,15.31
2016-04-22T10:21:37.468Z,15.41
2016-04-22T10:22:37.612Z,15.42
2016-04-22T10:23:37.582Z,15.42
2016-04-22T10:24:37.570Z,15.43
2016-04-22T10:25:37.542Z,15.52
2016-04-22T10:26:37.512Z,15.56
2016-04-22T10:27:37.343Z,15.52
2016-04-22T10:28:37.471Z,15.45
2016-04-22T10:29:37.459Z,15.36
2016-04-22T10:30:37.430Z,15.13
2016-04-22T10:31:37.417Z,15.05
2016-04-22T10:32:37.389Z,15.03
2016-04-22T10:33:37.376Z,15.13
2016-04-22T10:34:37.363Z,14.99
2016-04-22T10:35:37.334Z,15.01
2016-04-22T10:36:37.321Z,15.15
2016-04-22T10:37:37.308Z,15.27
2016-04-22T10:38:37.280Z,15.24
2016-04-22T10:39:37.283Z,15.51
2016-04-22T10:40:37.238Z,15.51
2016-04-22T10:41:37.225Z,15.68
2016-04-22T10:42:37.197Z,15.92
2016-04-22T10:43:37.184Z,15.99
2016-04-22T10:44:37.171Z,16.01
2016-04-22T10:45:37.142Z,16.01
2016-04-22T10:46:37.129Z,15.99
2016-04-22T10:47:37.085Z,15.97
2016-04-22T10:48:37.104Z,16.14
2016-04-22T10:49:37.059Z,16.3
2016-04-22T10:50:37.062Z,16.33
2016-04-22T10:51:37.017Z,16.15
2016-04-22T10:52:37.020Z,16.12
2016-04-22T10:53:37.007Z,16.15
2016-04-22T10:54:36.979Z,16.2
2016-04-22T10:55:36.934Z,16.07
2016-04-22T10:56:36.937Z,15.97
2016-04-22T10:57:36.893Z,16.03
2016-04-22T10:58:36.880Z,15.99
2016-04-22T10:59:36.867Z,16
2016-04-22T11:00:36.839Z,16.03
2016-04-22T11:01:36.826Z,15.99
2016-04-22T11:02:36.812Z,16
2016-04-22T11:03:36.800Z,15.89
2016-04-22T11:04:36.771Z,15.88
2016-04-22T11:05:36.759Z,15.94
2016-04-22T11:06:36.746Z,16.03
2016-04-22T11:07:36.701Z,15.99
2016-04-22T11:08:36.703Z,16.03
2016-04-22T11:09:36.675Z,16.16
2016-04-22T11:10:36.663Z,15.99
2016-04-22T11:11:36.633Z,16
2016-04-22T11:12:36.621Z,16.03
2016-04-22T11:13:36.624Z,15.92
2016-04-22T11:14:36.580Z,16
2016-04-22T11:15:36.566Z,15.97
2016-04-22T11:16:36.538Z,15.89
2016-04-22T11:17:36.524Z,15.64
2016-04-22T11:18:36.512Z,15.66
2016-04-22T11:19:36.483Z,15.54
2016-04-22T11:20:36.455Z,15.52
2016-04-22T11:21:36.466Z,15.41
2016-04-22T11:22:36.639Z,15.48
2016-04-22T11:23:36.392Z,15.39
2016-04-22T11:24:36.379Z,15.38
2016-04-22T11:25:36.350Z,15.49
2016-04-22T11:26:36.337Z,15.33
2016-04-22T11:27:36.309Z,15.26
2016-04-22T11:28:36.296Z,15.3
2016-04-22T11:29:36.267Z,15.31
2016-04-22T11:30:36.270Z,15.33
2016-04-22T11:31:36.226Z,15.24
2016-04-22T11:32:36.214Z,15.24
2016-04-22T11:33:36.216Z,15.24
2016-04-22T11:34:36.171Z,15.15
2016-04-22T11:35:36.159Z,15.13
2016-04-22T11:36:36.130Z,15.15
2016-04-22T11:37:36.116Z,15.06
2016-04-22T11:38:36.104Z,14.99
2016-04-22T11:39:36.075Z,15.02
2016-04-22T11:40:36.047Z,14.95
2016-04-22T11:41:36.034Z,14.88
2016-04-22T11:42:36.021Z,14.8
2016-04-22T11:43:35.993Z,14.87
2016-04-22T11:44:35.964Z,14.9
2016-04-22T11:45:35.951Z,14.83
2016-04-22T11:46:35.937Z,14.86
2016-04-22T11:47:35.909Z,14.86
2016-04-22T11:48:35.881Z,14.93
2016-04-22T11:49:35.868Z,14.72
2016-04-22T11:50:35.870Z,14.72
2016-04-22T11:51:35.826Z,14.8
2016-04-22T11:52:35.814Z,14.86
2016-04-22T11:53:35.785Z,14.81
2016-04-22T11:54:35.756Z,14.86
2016-04-22T11:55:35.743Z,14.8
2016-04-22T11:56:35.714Z,14.75
2016-04-22T11:57:35.703Z,14.81
2016-04-22T11:58:35.673Z,14.74
2016-04-22T11:59:35.692Z,14.83
2016-04-22T12:00:35.632Z,14.64
2016-04-22T12:01:35.619Z,14.67
2016-04-22T12:02:35.591Z,14.71
2016-04-22T12:03:35.578Z,14.62
2016-04-22T12:04:35.549Z,14.64
2016-04-22T12:05:35.536Z,14.74
2016-04-22T12:06:35.523Z,14.71
2016-04-22T12:07:35.494Z,14.72
2016-04-22T12:08:35.685Z,14.72
2016-04-22T12:09:35.469Z,14.78
2016-04-22T12:10:35.424Z,14.9
2016-04-22T12:11:35.396Z,14.86
2016-04-22T12:12:35.382Z,14.9
2016-04-22T12:13:35.354Z,14.8
2016-04-22T12:14:35.341Z,14.69
2016-04-22T12:15:35.313Z,14.68
2016-04-22T12:16:35.300Z,14.8
2016-04-22T12:17:35.272Z,14.87
2016-04-22T12:18:35.259Z,14.75
2016-04-22T12:19:37.138Z,14.71
2016-04-22T12:20:35.219Z,14.81
2016-04-22T12:21:35.206Z,14.75
2016-04-22T12:22:35.162Z,14.71
2016-04-22T12:23:35.149Z,14.62
2016-04-22T12:24:35.133Z,14.75
2016-04-22T12:25:35.120Z,14.67
2016-04-22T12:26:35.091Z,14.68
2016-04-22T12:27:35.078Z,14.67
2016-04-22T12:28:35.050Z,14.67
2016-04-22T12:29:35.022Z,14.81
2016-04-22T12:30:34.994Z,14.81
2016-04-22T12:31:34.980Z,14.8
2016-04-22T12:32:34.967Z,14.84
2016-04-22T12:33:34.954Z,14.83
2016-04-22T12:34:34.910Z,14.74
2016-04-22T12:35:34.897Z,14.68
2016-04-22T12:36:34.869Z,14.67
2016-04-22T12:37:34.856Z,14.71
2016-04-22T12:38:34.843Z,14.8
2016-04-22T12:39:34.830Z,14.81
2016-04-22T12:40:34.786Z,14.75
2016-04-22T12:41:34.773Z,14.83
2016-04-22T12:42:34.760Z,14.84
2016-04-22T12:43:34.731Z,14.93
2016-04-22T12:44:34.703Z,14.86
2016-04-22T12:45:34.674Z,14.75
2016-04-22T12:46:34.567Z,14.67
2016-04-22T12:47:34.648Z,14.68
2016-04-22T12:48:34.650Z,14.84
2016-04-22T12:49:34.622Z,14.75
2016-04-22T12:50:34.578Z,14.95
2016-04-22T12:51:34.550Z,14.88
2016-04-22T12:52:34.536Z,14.86
2016-04-22T12:53:34.540Z,15.01
2016-04-22T12:54:34.511Z,15.03
2016-04-22T12:55:34.497Z,15.15
2016-04-22T12:56:34.469Z,15.26
2016-04-22T12:57:34.456Z,15.35
2016-04-22T12:58:34.428Z,15.35
2016-04-22T12:59:34.400Z,15.46
2016-04-22T13:00:34.372Z,15.49
2016-04-22T13:01:34.374Z,15.57
2016-04-22T13:02:34.344Z,15.36
2016-04-22T13:03:34.316Z,15.49
2016-04-22T13:04:34.288Z,15.41
2016-04-22T13:05:34.280Z,15.48
2016-04-22T13:06:34.251Z,15.57
2016-04-22T13:07:34.223Z,15.67
2016-04-22T13:08:34.210Z,15.72
2016-04-22T13:09:34.196Z,15.67
2016-04-22T13:10:34.168Z,15.67
2016-04-22T13:11:34.155Z,15.63
2016-04-22T13:12:34.127Z,15.61
2016-04-22T13:13:34.129Z,15.67
2016-04-22T13:14:34.085Z,15.54
2016-04-22T13:15:34.073Z,15.46